sensor_id;sensor_type;location;lat;lon;timestamp;pressure;altitude;pressure_sealevel;temperature;humidity
47240;BME280;32978;53.586;10.052;2023-02-20T00:01:04;101998.69;;;4.33;100.00
47240;BME280;32978;53.586;10.052;2023-02-20T00:06:00;101986.31;;;4.37;100.00
47240;BME280;32978;53.586;10.052;2023-02-20T00:10:56;101983.84;;;4.35;100.00
47240;BME280;32978;53.586;10.052;2023-02-20T00:15:53;101962.66;;;4.32;100.00
47240;BME280;32978;53.586;10.052;2023-02-20T00:20:49;101960.53;;;4.34;100.00
47240;BME280;32978;53.586;10.052;2023-02-20T00:25:46;101936.75;;;4.36;100.00
47240;BME280;32978;53.586;10.052;2023-02-20T00:30:42;101916.13;;;4.35;100.00
47240;BME280;32978;53.586;10.052;2023-02-20T00:35:39;101908.81;;;4.36;100.00
47240;BME280;32978;53.586;10.052;2023-02-20T00:40:35;101881.28;;;4.39;100.00
47240;BME280;32978;53.586;10.052;2023-02-20T00:45:32;101870.28;;;4.46;100.00
47240;BME280;32978;53.586;10.052;2023-02-20T00:50:28;101854.84;;;4.46;100.00
47240;BME280;32978;53.586;10.052;2023-02-20T00:55:25;101848.59;;;4.46;100.00
47240;BME280;32978;53.586;10.052;2023-02-20T01:00:24;101821.00;;;4.49;100.00
47240;BME280;32978;53.586;10.052;2023-02-20T01:05:22;101835.59;;;4.48;100.00
47240;BME280;32978;53.586;10.052;2023-02-20T01:10:19;101838.88;;;4.50;100.00
47240;BME280;32978;53.586;10.052;2023-02-20T01:15:15;101835.19;;;4.56;100.00
47240;BME280;32978;53.586;10.052;2023-02-20T01:20:12;101841.19;;;4.58;100.00
47240;BME280;32978;53.586;10.052;2023-02-20T01:25:08;101819.56;;;4.63;100.00
47240;BME280;32978;53.586;10.052;2023-02-20T01:30:05;101807.19;;;4.67;100.00
47240;BME280;32978;53.586;10.052;2023-02-20T01:35:02;101829.91;;;4.66;100.00
47240;BME280;32978;53.586;10.052;2023-02-20T01:39:59;101795.00;;;4.70;100.00
47240;BME280;32978;53.586;10.052;2023-02-20T01:45:35;101791.84;;;4.78;100.00
47240;BME280;32978;53.586;10.052;2023-02-20T01:50:39;101785.13;;;4.80;100.00
47240;BME280;32978;53.586;10.052;2023-02-20T01:55:56;101771.00;;;4.78;100.00
47240;BME280;32978;53.586;10.052;2023-02-20T02:00:56;101755.56;;;4.79;100.00
47240;BME280;32978;53.586;10.052;2023-02-20T02:05:59;101730.41;;;4.83;100.00
47240;BME280;32978;53.586;10.052;2023-02-20T02:11:26;101707.41;;;4.86;100.00
47240;BME280;32978;53.586;10.052;2023-02-20T02:16:35;101718.34;;;4.96;100.00
47240;BME280;32978;53.586;10.052;2023-02-20T02:27:25;101697.59;;;5.07;100.00
47240;BME280;32978;53.586;10.052;2023-02-20T02:48:44;101697.28;;;5.03;100.00
47240;BME280;32978;53.586;10.052;2023-02-20T02:54:09;101690.44;;;4.96;100.00
47240;BME280;32978;53.586;10.052;2023-02-20T02:59:09;101677.84;;;4.84;100.00
47240;BME280;32978;53.586;10.052;2023-02-20T03:04:09;101665.59;;;4.77;100.00
47240;BME280;32978;53.586;10.052;2023-02-20T03:09:10;101674.81;;;4.76;100.00
47240;BME280;32978;53.586;10.052;2023-02-20T03:14:31;101664.25;;;4.79;100.00
47240;BME280;32978;53.586;10.052;2023-02-20T03:19:50;101667.47;;;4.76;100.00
47240;BME280;32978;53.586;10.052;2023-02-20T03:24:50;101669.16;;;4.82;100.00
47240;BME280;32978;53.586;10.052;2023-02-20T03:29:56;101665.19;;;4.90;100.00
47240;BME280;32978;53.586;10.052;2023-02-20T03:34:55;101665.94;;;4.85;100.00
47240;BME280;32978;53.586;10.052;2023-02-20T03:40:13;101655.16;;;4.91;100.00
47240;BME280;32978;53.586;10.052;2023-02-20T03:45:31;101641.34;;;4.92;100.00
47240;BME280;32978;53.586;10.052;2023-02-20T03:50:28;101630.81;;;4.96;100.00
47240;BME280;32978;53.586;10.052;2023-02-20T03:55:24;101636.34;;;5.06;100.00
47240;BME280;32978;53.586;10.052;2023-02-20T04:00:25;101652.66;;;5.16;100.00
47240;BME280;32978;53.586;10.052;2023-02-20T04:05:24;101638.56;;;5.14;100.00
47240;BME280;32978;53.586;10.052;2023-02-20T04:10:25;101636.97;;;5.18;100.00
47240;BME280;32978;53.586;10.052;2023-02-20T04:15:24;101609.28;;;5.16;100.00
47240;BME280;32978;53.586;10.052;2023-02-20T04:20:22;101597.31;;;5.12;100.00
47240;BME280;32978;53.586;10.052;2023-02-20T04:25:32;101586.44;;;5.07;100.00
47240;BME280;32978;53.586;10.052;2023-02-20T04:30:31;101583.53;;;5.14;100.00
47240;BME280;32978;53.586;10.052;2023-02-20T04:35:28;101567.28;;;5.19;100.00
47240;BME280;32978;53.586;10.052;2023-02-20T04:40:25;101557.03;;;5.26;100.00
47240;BME280;32978;53.586;10.052;2023-02-20T04:45:21;101541.56;;;5.26;100.00
47240;BME280;32978;53.586;10.052;2023-02-20T04:50:24;101524.22;;;5.27;100.00
47240;BME280;32978;53.586;10.052;2023-02-20T04:55:21;101530.69;;;5.21;100.00
47240;BME280;32978;53.586;10.052;2023-02-20T05:00:18;101513.94;;;5.30;100.00
47240;BME280;32978;53.586;10.052;2023-02-20T05:05:22;101537.78;;;5.27;100.00
47240;BME280;32978;53.586;10.052;2023-02-20T05:10:21;101550.81;;;5.31;100.00
47240;BME280;32978;53.586;10.052;2023-02-20T05:15:18;101532.38;;;5.33;100.00
47240;BME280;32978;53.586;10.052;2023-02-20T05:20:16;101519.94;;;5.37;100.00
47240;BME280;32978;53.586;10.052;2023-02-20T05:25:14;101510.72;;;5.38;100.00
47240;BME280;32978;53.586;10.052;2023-02-20T05:30:10;101502.59;;;5.38;100.00
47240;BME280;32978;53.586;10.052;2023-02-20T05:35:07;101488.47;;;5.36;100.00
47240;BME280;32978;53.586;10.052;2023-02-20T05:40:04;101471.69;;;5.39;100.00
47240;BME280;32978;53.586;10.052;2023-02-20T05:45:01;101461.41;;;5.41;100.00
47240;BME280;32978;53.586;10.052;2023-02-20T05:49:59;101465.72;;;5.42;100.00
47240;BME280;32978;53.586;10.052;2023-02-20T05:54:56;101443.78;;;5.43;100.00
47240;BME280;32978;53.586;10.052;2023-02-20T05:59:52;101437.00;;;5.51;100.00
47240;BME280;32978;53.586;10.052;2023-02-20T06:04:49;101442.13;;;5.47;100.00
47240;BME280;32978;53.586;10.052;2023-02-20T06:09:45;101419.63;;;5.47;100.00
47240;BME280;32978;53.586;10.052;2023-02-20T06:14:42;101406.63;;;5.44;100.00
47240;BME280;32978;53.586;10.052;2023-02-20T06:19:39;101421.28;;;5.48;100.00
47240;BME280;32978;53.586;10.052;2023-02-20T06:24:36;101421.28;;;5.48;100.00
47240;BME280;32978;53.586;10.052;2023-02-20T06:29:32;101427.78;;;5.52;100.00
47240;BME280;32978;53.586;10.052;2023-02-20T06:34:28;101412.03;;;5.44;100.00
47240;BME280;32978;53.586;10.052;2023-02-20T06:39:29;101431.59;;;5.51;100.00
47240;BME280;32978;53.586;10.052;2023-02-20T06:44:26;101438.13;;;5.65;100.00
47240;BME280;32978;53.586;10.052;2023-02-20T06:49:22;101432.47;;;5.72;100.00
47240;BME280;32978;53.586;10.052;2023-02-20T06:54:19;101427.59;;;5.79;100.00
47240;BME280;32978;53.586;10.052;2023-02-20T06:59:17;101424.88;;;5.84;100.00
47240;BME280;32978;53.586;10.052;2023-02-20T07:09:13;101435.00;;;5.94;100.00
47240;BME280;32978;53.586;10.052;2023-02-20T07:14:09;101438.78;;;5.98;100.00
47240;BME280;32978;53.586;10.052;2023-02-20T07:19:06;101435.53;;;6.01;100.00
47240;BME280;32978;53.586;10.052;2023-02-20T07:24:03;101445.31;;;6.07;100.00
47240;BME280;32978;53.586;10.052;2023-02-20T07:28:59;101433.91;;;6.05;100.00
47240;BME280;32978;53.586;10.052;2023-02-20T07:33:56;101436.09;;;6.08;100.00
47240;BME280;32978;53.586;10.052;2023-02-20T07:38:58;101431.72;;;6.13;100.00
47240;BME280;32978;53.586;10.052;2023-02-20T07:43:55;101411.66;;;6.14;100.00
47240;BME280;32978;53.586;10.052;2023-02-20T07:48:51;101412.47;;;6.14;100.00
47240;BME280;32978;53.586;10.052;2023-02-20T07:53:49;101405.66;;;6.17;100.00
47240;BME280;32978;53.586;10.052;2023-02-20T07:58:46;101399.72;;;6.20;100.00
47240;BME280;32978;53.586;10.052;2023-02-20T08:03:43;101404.06;;;6.21;100.00
47240;BME280;32978;53.586;10.052;2023-02-20T08:08:40;101390.47;;;6.21;100.00
47240;BME280;32978;53.586;10.052;2023-02-20T08:13:37;101379.59;;;6.26;100.00
47240;BME280;32978;53.586;10.052;2023-02-20T08:18:33;101365.50;;;6.29;100.00
47240;BME280;32978;53.586;10.052;2023-02-20T08:23:30;101382.59;;;6.29;100.00
47240;BME280;32978;53.586;10.052;2023-02-20T08:28:26;101388.28;;;6.33;100.00
47240;BME280;32978;53.586;10.052;2023-02-20T08:33:23;101366.03;;;6.36;100.00
47240;BME280;32978;53.586;10.052;2023-02-20T08:38:28;101365.19;;;6.36;100.00
47240;BME280;32978;53.586;10.052;2023-02-20T08:43:25;101365.47;;;6.39;100.00
47240;BME280;32978;53.586;10.052;2023-02-20T08:48:23;101345.38;;;6.40;100.00
47240;BME280;32978;53.586;10.052;2023-02-20T08:53:20;101349.72;;;6.46;100.00
47240;BME280;32978;53.586;10.052;2023-02-20T08:58:22;101348.09;;;6.45;100.00
47240;BME280;32978;53.586;10.052;2023-02-20T09:03:19;101341.56;;;6.41;100.00
47240;BME280;32978;53.586;10.052;2023-02-20T09:08:15;101328.53;;;6.43;100.00
47240;BME280;32978;53.586;10.052;2023-02-20T09:13:13;101319.84;;;6.41;100.00
47240;BME280;32978;53.586;10.052;2023-02-20T09:18:11;101316.59;;;6.39;100.00
47240;BME280;32978;53.586;10.052;2023-02-20T09:23:09;101330.72;;;6.41;100.00
47240;BME280;32978;53.586;10.052;2023-02-20T09:28:06;101323.09;;;6.43;100.00
47240;BME280;32978;53.586;10.052;2023-02-20T09:33:04;101331.78;;;6.45;100.00
47240;BME280;32978;53.586;10.052;2023-02-20T09:38:00;101328.78;;;6.47;100.00
47240;BME280;32978;53.586;10.052;2023-02-20T09:43:55;101329.59;;;6.47;100.00
47240;BME280;32978;53.586;10.052;2023-02-20T09:58:59;101294.81;;;6.60;100.00
47240;BME280;32978;53.586;10.052;2023-02-20T10:04:07;101305.66;;;6.65;100.00
47240;BME280;32978;53.586;10.052;2023-02-20T10:09:10;101308.88;;;6.72;100.00
47240;BME280;32978;53.586;10.052;2023-02-20T10:24:46;101305.50;;;7.01;100.00
47240;BME280;32978;53.586;10.052;2023-02-20T10:29:44;101295.13;;;7.13;100.00
47240;BME280;32978;53.586;10.052;2023-02-20T10:34:49;101293.34;;;7.32;100.00
47240;BME280;32978;53.586;10.052;2023-02-20T10:39:54;101297.63;;;7.44;100.00
47240;BME280;32978;53.586;10.052;2023-02-20T10:45:00;101282.56;;;7.56;100.00
47240;BME280;32978;53.586;10.052;2023-02-20T10:50:02;101287.69;;;7.63;100.00
47240;BME280;32978;53.586;10.052;2023-02-20T10:55:24;101275.72;;;7.64;100.00
47240;BME280;32978;53.586;10.052;2023-02-20T11:00:26;101264.75;;;7.74;100.00
47240;BME280;32978;53.586;10.052;2023-02-20T11:05:27;101282.66;;;7.80;100.00
47240;BME280;32978;53.586;10.052;2023-02-20T11:10:28;101266.88;;;7.83;100.00
47240;BME280;32978;53.586;10.052;2023-02-20T11:15:28;101294.63;;;7.85;100.00
47240;BME280;32978;53.586;10.052;2023-02-20T11:30:33;101279.78;;;8.01;100.00
47240;BME280;32978;53.586;10.052;2023-02-20T11:35:33;101249.75;;;8.06;100.00
47240;BME280;32978;53.586;10.052;2023-02-20T11:40:31;101251.28;;;8.17;100.00
47240;BME280;32978;53.586;10.052;2023-02-20T11:45:28;101242.47;;;8.26;100.00
47240;BME280;32978;53.586;10.052;2023-02-20T11:50:37;101243.25;;;8.31;100.00
47240;BME280;32978;53.586;10.052;2023-02-20T11:55:34;101214.53;;;8.39;100.00
47240;BME280;32978;53.586;10.052;2023-02-20T12:00:48;101199.72;;;8.50;100.00
47240;BME280;32978;53.586;10.052;2023-02-20T12:05:46;101198.31;;;8.53;100.00
47240;BME280;32978;53.586;10.052;2023-02-20T12:10:45;101185.94;;;8.60;100.00
47240;BME280;32978;53.586;10.052;2023-02-20T12:15:51;101190.31;;;8.61;100.00
47240;BME280;32978;53.586;10.052;2023-02-20T12:21:01;101191.31;;;8.66;100.00
47240;BME280;32978;53.586;10.052;2023-02-20T12:26:24;101189.13;;;8.68;100.00
47240;BME280;32978;53.586;10.052;2023-02-20T12:31:40;101189.13;;;8.68;100.00
47240;BME280;32978;53.586;10.052;2023-02-20T12:36:42;101168.94;;;8.69;100.00
47240;BME280;32978;53.586;10.052;2023-02-20T12:42:00;101184.09;;;8.75;100.00
47240;BME280;32978;53.586;10.052;2023-02-20T12:47:10;101192.81;;;8.77;100.00
47240;BME280;32978;53.586;10.052;2023-02-20T12:58:07;101160.59;;;8.79;100.00
47240;BME280;32978;53.586;10.052;2023-02-20T13:08:30;101171.44;;;8.84;100.00
47240;BME280;32978;53.586;10.052;2023-02-20T13:29:24;101166.44;;;8.91;100.00
47240;BME280;32978;53.586;10.052;2023-02-20T13:34:37;101175.72;;;8.90;100.00
47240;BME280;32978;53.586;10.052;2023-02-20T13:39:36;101168.06;;;8.92;100.00
47240;BME280;32978;53.586;10.052;2023-02-20T13:54:46;101173.00;;;8.90;100.00
47240;BME280;32978;53.586;10.052;2023-02-20T13:59:43;101155.03;;;8.89;100.00
47240;BME280;32978;53.586;10.052;2023-02-20T14:04:51;101148.44;;;8.90;100.00
47240;BME280;32978;53.586;10.052;2023-02-20T14:09:58;101153.91;;;8.90;100.00
47240;BME280;32978;53.586;10.052;2023-02-20T14:14:55;101153.91;;;8.90;100.00
47240;BME280;32978;53.586;10.052;2023-02-20T14:19:56;101143.00;;;8.90;100.00
47240;BME280;32978;53.586;10.052;2023-02-20T14:30:12;101144.03;;;8.94;100.00
47240;BME280;32978;53.586;10.052;2023-02-20T14:35:15;101144.84;;;8.95;100.00
47240;BME280;32978;53.586;10.052;2023-02-20T14:40:33;101150.66;;;8.88;100.00
47240;BME280;32978;53.586;10.052;2023-02-20T14:45:32;101178.72;;;8.89;100.00
47240;BME280;32978;53.586;10.052;2023-02-20T14:50:34;101153.03;;;8.76;100.00
47240;BME280;32978;53.586;10.052;2023-02-20T14:55:31;101156.28;;;8.78;100.00
47240;BME280;32978;53.586;10.052;2023-02-20T15:00:37;101139.75;;;8.88;100.00
47240;BME280;32978;53.586;10.052;2023-02-20T15:05:34;101174.03;;;8.94;100.00
47240;BME280;32978;53.586;10.052;2023-02-20T15:10:35;101163.78;;;8.86;100.00
47240;BME280;32978;53.586;10.052;2023-02-20T15:15:37;101162.53;;;8.78;100.00
47240;BME280;32978;53.586;10.052;2023-02-20T15:20:38;101169.75;;;8.88;100.00
47240;BME280;32978;53.586;10.052;2023-02-20T15:25:35;101181.47;;;8.70;100.00
47240;BME280;32978;53.586;10.052;2023-02-20T15:30:32;101181.03;;;8.38;100.00
47240;BME280;32978;53.586;10.052;2023-02-20T15:35:30;101210.13;;;8.19;100.00
47240;BME280;32978;53.586;10.052;2023-02-20T15:40:31;101200.16;;;8.09;100.00
47240;BME280;32978;53.586;10.052;2023-02-20T15:45:29;101218.16;;;8.05;100.00
47240;BME280;32978;53.586;10.052;2023-02-20T15:50:26;101205.72;;;7.99;100.00
47240;BME280;32978;53.586;10.052;2023-02-20T15:55:23;101207.91;;;7.97;100.00
47240;BME280;32978;53.586;10.052;2023-02-20T16:05:21;101200.34;;;7.89;100.00
47240;BME280;32978;53.586;10.052;2023-02-20T16:10:20;101220.53;;;7.88;100.00
47240;BME280;32978;53.586;10.052;2023-02-20T16:15:19;101194.41;;;7.87;100.00
47240;BME280;32978;53.586;10.052;2023-02-20T16:20:26;101198.75;;;7.88;100.00
47240;BME280;32978;53.586;10.052;2023-02-20T16:25:23;101202.59;;;7.87;100.00
47240;BME280;32978;53.586;10.052;2023-02-20T16:30:28;101200.94;;;7.86;100.00
47240;BME280;32978;53.586;10.052;2023-02-20T16:35:29;101204.78;;;7.85;100.00
47240;BME280;32978;53.586;10.052;2023-02-20T16:40:25;101209.16;;;7.80;100.00
47240;BME280;32978;53.586;10.052;2023-02-20T16:45:22;101204.81;;;7.79;100.00
47240;BME280;32978;53.586;10.052;2023-02-20T16:50:22;101205.34;;;7.82;100.00
47240;BME280;32978;53.586;10.052;2023-02-20T16:55:25;101230.94;;;7.80;100.00
47240;BME280;32978;53.586;10.052;2023-02-20T17:00:34;101226.88;;;7.78;100.00
47240;BME280;32978;53.586;10.052;2023-02-20T17:05:40;101219.00;;;7.76;100.00
47240;BME280;32978;53.586;10.052;2023-02-20T17:10:36;101227.97;;;7.77;100.00
47240;BME280;32978;53.586;10.052;2023-02-20T17:15:33;101242.41;;;7.77;100.00
47240;BME280;32978;53.586;10.052;2023-02-20T17:20:32;101238.34;;;7.75;100.00
47240;BME280;32978;53.586;10.052;2023-02-20T17:25:28;101243.78;;;7.75;100.00
47240;BME280;32978;53.586;10.052;2023-02-20T17:30:25;101256.88;;;7.73;100.00
47240;BME280;32978;53.586;10.052;2023-02-20T17:35:22;101247.59;;;7.74;100.00
47240;BME280;32978;53.586;10.052;2023-02-20T17:40:19;101237.53;;;7.74;100.00
47240;BME280;32978;53.586;10.052;2023-02-20T17:45:16;101245.69;;;7.74;100.00
47240;BME280;32978;53.586;10.052;2023-02-20T17:50:16;101244.09;;;7.73;100.00
47240;BME280;32978;53.586;10.052;2023-02-20T17:55:17;101249.53;;;7.73;100.00
47240;BME280;32978;53.586;10.052;2023-02-20T18:00:16;101246.81;;;7.73;100.00
47240;BME280;32978;53.586;10.052;2023-02-20T18:05:12;101257.69;;;7.73;100.00
47240;BME280;32978;53.586;10.052;2023-02-20T18:10:09;101250.59;;;7.72;100.00
47240;BME280;32978;53.586;10.052;2023-02-20T18:15:06;101245.75;;;7.69;100.00
47240;BME280;32978;53.586;10.052;2023-02-20T18:20:03;101247.59;;;7.74;100.00
47240;BME280;32978;53.586;10.052;2023-02-20T18:25:00;101247.88;;;7.77;100.00
47240;BME280;32978;53.586;10.052;2023-02-20T18:29:56;101266.38;;;7.75;100.00
47240;BME280;32978;53.586;10.052;2023-02-20T18:34:53;101246.81;;;7.73;100.00
47240;BME280;32978;53.586;10.052;2023-02-20T18:39:49;101259.31;;;7.74;100.00
47240;BME280;32978;53.586;10.052;2023-02-20T18:44:46;101246.81;;;7.73;100.00
47240;BME280;32978;53.586;10.052;2023-02-20T18:49:46;101247.59;;;7.74;100.00
47240;BME280;32978;53.586;10.052;2023-02-20T18:54:42;101251.13;;;7.74;100.00
47240;BME280;32978;53.586;10.052;2023-02-20T18:59:40;101243.78;;;7.75;100.00
47240;BME280;32978;53.586;10.052;2023-02-20T19:04:37;101254.66;;;7.75;100.00
47240;BME280;32978;53.586;10.052;2023-02-20T19:09:33;101259.31;;;7.74;100.00
47240;BME280;32978;53.586;10.052;2023-02-20T19:14:33;101268.00;;;7.76;100.00
47240;BME280;32978;53.586;10.052;2023-02-20T19:19:30;101257.13;;;7.76;100.00
47240;BME280;32978;53.586;10.052;2023-02-20T19:24:26;101266.38;;;7.75;100.00
47240;BME280;32978;53.586;10.052;2023-02-20T19:29:23;101274.25;;;7.77;100.00
47240;BME280;32978;53.586;10.052;2023-02-20T19:34:19;101247.88;;;7.77;100.00
47240;BME280;32978;53.586;10.052;2023-02-20T19:39:16;101265.22;;;7.82;100.00
47240;BME280;32978;53.586;10.052;2023-02-20T19:44:13;101260.91;;;7.80;100.00
47240;BME280;32978;53.586;10.052;2023-02-20T19:49:11;101244.03;;;7.78;100.00
47240;BME280;32978;53.586;10.052;2023-02-20T19:54:08;101257.38;;;7.80;100.00
47240;BME280;32978;53.586;10.052;2023-02-20T19:59:04;101248.88;;;7.82;100.00
47240;BME280;32978;53.586;10.052;2023-02-20T20:04:01;101251.34;;;7.83;100.00
47240;BME280;32978;53.586;10.052;2023-02-20T20:08:57;101249.72;;;7.82;100.00
47240;BME280;32978;53.586;10.052;2023-02-20T20:14:12;101260.84;;;7.86;100.00
47240;BME280;32978;53.586;10.052;2023-02-20T20:19:09;101245.91;;;7.83;100.00
47240;BME280;32978;53.586;10.052;2023-02-20T20:24:07;101253.78;;;7.85;100.00
47240;BME280;32978;53.586;10.052;2023-02-20T20:29:06;101249.16;;;7.85;100.00
47240;BME280;32978;53.586;10.052;2023-02-20T20:34:04;101255.41;;;7.86;100.00
47240;BME280;32978;53.586;10.052;2023-02-20T20:39:02;101252.16;;;7.84;100.00
47240;BME280;32978;53.586;10.052;2023-02-20T20:43:59;101255.41;;;7.86;100.00
47240;BME280;32978;53.586;10.052;2023-02-20T20:49:01;101267.41;;;7.85;100.00
47240;BME280;32978;53.586;10.052;2023-02-20T20:53:58;101246.16;;;7.87;100.00
47240;BME280;32978;53.586;10.052;2023-02-20T20:58:55;101259.44;;;7.88;100.00
47240;BME280;32978;53.586;10.052;2023-02-20T21:03:51;101265.22;;;7.87;100.00
47240;BME280;32978;53.586;10.052;2023-02-20T21:08:48;101262.47;;;7.87;100.00
47240;BME280;32978;53.586;10.052;2023-02-20T21:13:47;101257.03;;;7.87;100.00
47240;BME280;32978;53.586;10.052;2023-02-20T21:18:44;101263.56;;;7.86;100.00
47240;BME280;32978;53.586;10.052;2023-02-20T21:23:41;101253.78;;;7.85;100.00
47240;BME280;32978;53.586;10.052;2023-02-20T21:28:40;101252.94;;;7.84;100.00
47240;BME280;32978;53.586;10.052;2023-02-20T21:33:36;101253.78;;;7.85;100.00
47240;BME280;32978;53.586;10.052;2023-02-20T21:38:33;101251.63;;;7.82;100.00
47240;BME280;32978;53.586;10.052;2023-02-20T21:43:30;101252.16;;;7.84;100.00
47240;BME280;32978;53.586;10.052;2023-02-20T21:48:45;101242.06;;;7.84;100.00
47240;BME280;32978;53.586;10.052;2023-02-20T21:53:41;101246.69;;;7.84;100.00
47240;BME280;32978;53.586;10.052;2023-02-20T21:58:38;101252.16;;;7.84;100.00
47240;BME280;32978;53.586;10.052;2023-02-20T22:03:53;101252.16;;;7.84;100.00
47240;BME280;32978;53.586;10.052;2023-02-20T22:08:49;101245.09;;;7.83;100.00
47240;BME280;32978;53.586;10.052;2023-02-20T22:14:04;101244.56;;;7.80;100.00
47240;BME280;32978;53.586;10.052;2023-02-20T22:19:20;101242.38;;;7.83;100.00
47240;BME280;32978;53.586;10.052;2023-02-20T22:24:35;101240.19;;;7.79;100.00
47240;BME280;32978;53.586;10.052;2023-02-20T22:29:51;101253.31;;;7.77;100.00
47240;BME280;32978;53.586;10.052;2023-02-20T22:35:06;101240.50;;;7.78;100.00
47240;BME280;32978;53.586;10.052;2023-02-20T22:40:21;101238.06;;;7.76;100.00
47240;BME280;32978;53.586;10.052;2023-02-20T22:45:36;101247.88;;;7.77;100.00
47240;BME280;32978;53.586;10.052;2023-02-20T22:50:51;101266.38;;;7.75;100.00
47240;BME280;32978;53.586;10.052;2023-02-20T22:56:07;101270.72;;;7.76;100.00
47240;BME280;32978;53.586;10.052;2023-02-20T23:01:30;101277.81;;;7.72;100.00
47240;BME280;32978;53.586;10.052;2023-02-20T23:06:45;101266.41;;;7.70;100.00
47240;BME280;32978;53.586;10.052;2023-02-20T23:12:00;101263.19;;;7.68;100.00
47240;BME280;32978;53.586;10.052;2023-02-20T23:17:15;101274.88;;;7.69;100.00
47240;BME280;32978;53.586;10.052;2023-02-20T23:22:33;101272.97;;;7.69;100.00
47240;BME280;32978;53.586;10.052;2023-02-20T23:27:48;101275.97;;;7.68;100.00
47240;BME280;32978;53.586;10.052;2023-02-20T23:33:03;101261.53;;;7.67;100.00
47240;BME280;32978;53.586;10.052;2023-02-20T23:38:18;101288.22;;;7.65;100.00
47240;BME280;32978;53.586;10.052;2023-02-20T23:43:34;101284.69;;;7.65;100.00
47240;BME280;32978;53.586;10.052;2023-02-20T23:48:49;101291.81;;;7.61;100.00
47240;BME280;32978;53.586;10.052;2023-02-20T23:54:05;101292.59;;;7.61;100.00
47240;BME280;32978;53.586;10.052;2023-02-20T23:59:19;101300.28;;;7.59;100.00
